Time;durP1;ratioP1;P1;durP2;ratioP2;P2;SDS_P1;SDS_P2;PMS_P1;PMS_P2;Temp;Humidity;BMP_temperature;BMP_pressure;BME280_temperature;BME280_humidity;BME280_pressure;Samples;Min_cycle;Max_cycle;Signal;HPM_P1;HPM_P2
2021/05/10 00:02:05;;;;;;;54.38;30.65;;;6.70;75.80;;;;;;5053405;28;20499;-79
2021/05/10 00:04:31;;;;;;;50.38;28.50;;;6.70;75.70;;;;;;5053353;28;20086;-79
2021/05/10 00:06:57;;;;;;;47.80;29.27;;;6.70;75.60;;;;;;5052693;28;20158;-79
2021/05/10 00:09:23;;;;;;;51.90;31.13;;;6.70;75.50;;;;;;5040971;28;20025;-80
2021/05/10 00:11:49;;;;;;;60.30;31.67;;;6.70;75.50;;;;;;5053643;28;20051;-79
2021/05/10 00:14:15;;;;;;;54.88;32.33;;;6.70;75.50;;;;;;5054638;28;20029;-80
2021/05/10 00:16:41;;;;;;;52.35;31.98;;;6.60;75.50;;;;;;5054522;28;20017;-79
2021/05/10 00:19:07;;;;;;;59.55;32.40;;;6.50;75.50;;;;;;5054542;28;20391;-79
2021/05/10 00:21:32;;;;;;;56.95;30.85;;;6.50;75.60;;;;;;5054854;28;20028;-79
2021/05/10 00:23:58;;;;;;;55.00;31.50;;;6.50;75.70;;;;;;5053604;28;20025;-79
2021/05/10 00:26:24;;;;;;;66.82;35.67;;;6.50;75.60;;;;;;5053170;28;20471;-79
2021/05/10 00:28:49;;;;;;;64.10;35.90;;;6.50;75.50;;;;;;5055409;28;20025;-79
2021/05/10 00:31:15;;;;;;;60.05;34.50;;;6.50;75.50;;;;;;5055589;28;20392;-80
2021/05/10 00:33:41;;;;;;;55.80;32.38;;;6.50;75.40;;;;;;5055954;28;20049;-79
2021/05/10 00:36:06;;;;;;;55.05;30.85;;;6.50;75.30;;;;;;5054805;28;20479;-79
2021/05/10 00:38:32;;;;;;;55.55;31.83;;;6.40;75.30;;;;;;5058369;28;20430;-79
2021/05/10 00:40:58;;;;;;;49.90;29.25;;;6.40;75.50;;;;;;5056901;28;20029;-79
2021/05/10 00:43:24;;;;;;;58.38;34.60;;;6.30;75.60;;;;;;5053968;28;20052;-79
2021/05/10 00:45:49;;;;;;;63.38;35.17;;;6.20;75.80;;;;;;5054731;28;20025;-80
2021/05/10 00:48:17;;;;;;;66.93;35.88;;;6.10;76.10;;;;;;5052949;28;20035;-81
2021/05/10 00:50:43;;;;;;;65.40;36.17;;;6.00;76.30;;;;;;5052568;28;20115;-79
2021/05/10 00:53:09;;;;;;;54.20;32.95;;;5.90;76.70;;;;;;5054218;28;20056;-79
2021/05/10 00:55:36;;;;;;;53.10;30.63;;;5.80;77.10;;;;;;5052438;28;20025;-79
2021/05/10 00:58:02;;;;;;;56.17;31.33;;;5.80;77.60;;;;;;5053981;28;20048;-78
2021/05/10 01:00:34;;;;;;;56.60;33.45;;;5.90;77.80;;;;;;5053559;28;20111;-79
2021/05/10 01:03:00;;;;;;;59.13;36.17;;;5.90;77.80;;;;;;5052771;28;20025;-79
2021/05/10 01:05:26;;;;;;;61.05;35.22;;;5.90;77.80;;;;;;5052590;28;20047;-78
2021/05/10 01:07:52;;;;;;;54.22;33.58;;;5.90;78.00;;;;;;5052681;28;20467;-78
2021/05/10 01:10:20;;;;;;;56.90;34.20;;;5.80;78.20;;;;;;5052366;28;20033;-79
2021/05/10 01:12:47;;;;;;;55.75;33.47;;;5.80;78.60;;;;;;5051961;28;20475;-79
2021/05/10 01:15:16;;;;;;;55.40;33.50;;;5.80;78.70;;;;;;5053576;28;20025;-79
2021/05/10 01:17:42;;;;;;;54.30;32.67;;;5.80;78.90;;;;;;5051855;28;20029;-79
2021/05/10 01:20:10;;;;;;;62.08;34.17;;;5.80;78.90;;;;;;5053575;28;20478;-79
2021/05/10 01:22:44;;;;;;;59.03;33.38;;;5.80;78.80;;;;;;5053125;28;20045;-79
2021/05/10 01:25:13;;;;;;;56.88;32.17;;;5.80;79.00;;;;;;5051967;28;20070;-79
2021/05/10 01:27:40;;;;;;;58.00;34.05;;;5.80;79.10;;;;;;5053407;28;20052;-79
2021/05/10 01:30:09;;;;;;;55.65;33.92;;;5.70;79.30;;;;;;5053012;28;20035;-79
2021/05/10 01:32:35;;;;;;;59.03;33.25;;;5.70;79.60;;;;;;5051904;28;20028;-78
2021/05/10 01:35:01;;;;;;;59.42;35.10;;;5.70;80.00;;;;;;5050559;28;20028;-79
2021/05/10 01:37:26;;;;;;;60.47;36.80;;;5.70;80.10;;;;;;5052357;28;20029;-79
2021/05/10 01:39:52;;;;;;;64.43;36.92;;;5.70;80.20;;;;;;5051688;28;20407;-79
2021/05/10 01:42:18;;;;;;;64.55;35.60;;;5.70;80.00;;;;;;5051940;28;20021;-78
2021/05/10 01:44:44;;;;;;;59.83;34.40;;;5.70;80.00;;;;;;5051577;28;20468;-79
2021/05/10 01:47:09;;;;;;;61.00;35.55;;;5.70;80.00;;;;;;5053582;28;20025;-78
2021/05/10 01:49:35;;;;;;;62.65;36.03;;;5.60;80.20;;;;;;5051672;28;20029;-78
2021/05/10 01:52:01;;;;;;;61.38;35.47;;;5.60;80.50;;;;;;5053421;28;20376;-78
2021/05/10 01:54:28;;;;;;;68.30;36.75;;;5.60;80.80;;;;;;5051568;28;20025;-79
2021/05/10 01:56:54;;;;;;;69.15;38.53;;;5.70;81.00;;;;;;5051795;28;20021;-79
2021/05/10 01:59:20;;;;;;;59.45;33.20;;;5.70;81.00;;;;;;5051679;28;20029;-78
2021/05/10 02:01:46;;;;;;;56.65;33.72;;;5.70;80.90;;;;;;5052909;28;20021;-78
2021/05/10 02:04:12;;;;;;;56.08;33.13;;;5.70;80.80;;;;;;5051934;28;20031;-78
2021/05/10 02:06:37;;;;;;;57.97;33.92;;;5.70;80.80;;;;;;5051453;28;20469;-78
2021/05/10 02:09:04;;;;;;;54.40;32.63;;;5.60;80.60;;;;;;5051419;28;20091;-77
2021/05/10 02:11:29;;;;;;;56.53;30.60;;;5.60;81.00;;;;;;5052903;28;20154;-79
2021/05/10 02:13:55;;;;;;;57.50;31.95;;;5.60;81.20;;;;;;5051795;28;20047;-78
2021/05/10 02:16:22;;;;;;;46.90;28.77;;;5.60;81.30;;;;;;5052507;28;20036;-77
2021/05/10 02:18:48;;;;;;;49.80;29.75;;;5.60;81.50;;;;;;5052958;28;20032;-78
2021/05/10 02:21:14;;;;;;;51.95;29.52;;;5.60;81.50;;;;;;5053339;28;20025;-77
2021/05/10 02:23:39;;;;;;;53.08;31.15;;;5.70;81.50;;;;;;5052258;28;20023;-78
2021/05/10 02:26:07;;;;;;;49.58;31.85;;;5.60;81.30;;;;;;5060134;28;20388;-78
2021/05/10 02:28:33;;;;;;;49.25;30.63;;;5.60;81.30;;;;;;5057717;28;20032;-79
2021/05/10 02:31:01;;;;;;;45.00;28.90;;;5.60;82.10;;;;;;5058266;28;20025;-80
2021/05/10 02:33:29;;;;;;;53.70;29.98;;;5.60;81.80;;;;;;5059319;28;20033;-80
2021/05/10 02:35:56;;;;;;;45.60;28.70;;;5.70;82.10;;;;;;5060065;28;20045;-80
2021/05/10 02:38:23;;;;;;;45.13;28.88;;;5.80;82.30;;;;;;5058135;28;20075;-79
2021/05/10 02:40:49;;;;;;;50.25;28.77;;;5.80;82.20;;;;;;5056800;28;20021;-80
2021/05/10 02:43:16;;;;;;;45.47;27.75;;;5.90;82.10;;;;;;5056567;28;20056;-80
2021/05/10 02:45:42;;;;;;;46.47;27.10;;;6.00;81.90;;;;;;5056022;28;20066;-80
2021/05/10 02:48:08;;;;;;;51.85;28.83;;;6.00;81.80;;;;;;5055576;28;20067;-78
2021/05/10 02:50:34;;;;;;;57.65;28.40;;;6.20;82.70;;;;;;5054982;28;20484;-82
2021/05/10 02:53:01;;;;;;;60.78;30.58;;;6.40;83.60;;;;;;5056633;28;20021;-79
2021/05/10 02:55:27;;;;;;;64.13;28.25;;;6.70;84.10;;;;;;5055288;28;20376;-79
2021/05/10 02:57:54;;;;;;;46.03;26.73;;;7.10;84.10;;;;;;5055059;28;20028;-79
2021/05/10 03:00:24;;;;;;;44.35;24.85;;;7.50;83.70;;;;;;5055120;28;20082;-80
2021/05/10 03:02:51;;;;;;;45.50;25.33;;;7.90;82.60;;;;;;5054704;28;20029;-80
2021/05/10 03:05:17;;;;;;;39.85;25.23;;;8.20;81.40;;;;;;5054723;28;20031;-80
2021/05/10 03:07:43;;;;;;;41.38;24.45;;;8.60;80.50;;;;;;5055421;28;20045;-80
2021/05/10 03:10:15;;;;;;;42.35;25.75;;;8.90;79.90;;;;;;5054389;28;20043;-80
2021/05/10 03:12:41;;;;;;;43.05;25.38;;;9.30;78.90;;;;;;5054346;28;20116;-81
2021/05/10 03:15:25;;;;;;;41.25;25.23;;;9.50;77.60;;;;;;5054827;28;20029;-80
2021/05/10 03:17:52;;;;;;;46.20;23.77;;;9.80;76.50;;;;;;5055706;28;20104;-81
2021/05/10 03:20:20;;;;;;;41.22;24.35;;;10.20;75.90;;;;;;5054386;28;20111;-83
2021/05/10 03:22:47;;;;;;;45.97;27.33;;;10.60;75.00;;;;;;5055729;28;20062;-80
2021/05/10 03:25:13;;;;;;;44.10;26.25;;;11.00;73.70;;;;;;5055899;28;20029;-81
2021/05/10 03:27:39;;;;;;;48.25;28.90;;;11.30;72.40;;;;;;5065968;28;20074;-80
2021/05/10 03:30:07;;;;;;;43.65;27.80;;;11.50;71.30;;;;;;5056866;28;20037;-81
2021/05/10 03:32:32;;;;;;;50.67;29.38;;;11.80;70.30;;;;;;5054334;28;20043;-81
2021/05/10 03:34:58;;;;;;;48.90;29.75;;;12.00;69.40;;;;;;5053935;28;20406;-80
2021/05/10 03:37:24;;;;;;;52.83;30.00;;;12.20;68.70;;;;;;5054394;28;20427;-79
2021/05/10 03:39:49;;;;;;;61.58;32.13;;;12.40;67.90;;;;;;5055286;28;20387;-80
2021/05/10 03:42:15;;;;;;;65.72;33.97;;;12.80;67.10;;;;;;5066737;28;20024;-81
2021/05/10 03:44:41;;;;;;;59.15;31.73;;;13.10;66.10;;;;;;5055263;28;20059;-80
2021/05/10 03:47:06;;;;;;;59.50;31.23;;;13.40;65.20;;;;;;5054083;28;20442;-80
2021/05/10 03:49:32;;;;;;;59.58;32.65;;;13.80;64.30;;;;;;5053875;28;20459;-81
2021/05/10 03:51:57;;;;;;;58.20;32.80;;;14.10;63.30;;;;;;5054938;28;20024;-80
2021/05/10 03:54:23;;;;;;;57.10;31.30;;;14.40;62.30;;;;;;5054751;28;20021;-80
2021/05/10 03:56:49;;;;;;;59.40;31.98;;;14.60;61.80;;;;;;5054003;28;20081;-80
2021/05/10 03:59:14;;;;;;;50.97;30.77;;;14.80;61.30;;;;;;5053641;28;20029;-81
2021/05/10 04:01:40;;;;;;;47.83;29.70;;;15.00;60.40;;;;;;5053692;28;20035;-81
2021/05/10 04:14:19;;;;;;;45.35;24.40;;;16.30;58.00;;;;;;5054871;28;20130;-81
2021/05/10 04:16:45;;;;;;;37.60;22.77;;;16.50;57.40;;;;;;5054154;28;20017;-82
2021/05/10 04:19:11;;;;;;;33.20;21.52;;;16.80;56.90;;;;;;5053953;28;20028;-82
2021/05/10 04:21:36;;;;;;;33.88;21.83;;;17.00;56.40;;;;;;5053753;28;20434;-83
2021/05/10 04:24:03;;;;;;;31.20;20.58;;;17.20;55.80;;;;;;5053256;28;20020;-82
2021/05/10 04:26:28;;;;;;;29.20;19.65;;;17.50;55.80;;;;;;5053076;28;20132;-83
2021/05/10 04:28:54;;;;;;;33.22;19.95;;;17.80;54.60;;;;;;5053896;28;20467;-83
2021/05/10 04:31:20;;;;;;;31.25;19.85;;;18.00;54.00;;;;;;5055830;28;20435;-84
2021/05/10 04:33:46;;;;;;;32.90;19.88;;;18.30;53.40;;;;;;5068210;28;20045;-83
2021/05/10 04:36:11;;;;;;;34.42;19.67;;;18.70;52.80;;;;;;5056896;28;20029;-82
2021/05/10 04:38:42;;;;;;;28.73;19.90;;;18.80;52.10;;;;;;5055496;28;20382;-83
2021/05/10 04:41:08;;;;;;;27.35;18.98;;;19.00;51.80;;;;;;5068506;28;20055;-83
2021/05/10 04:43:34;;;;;;;29.00;17.25;;;19.30;51.30;;;;;;5066829;28;20029;-82
2021/05/10 04:46:00;;;;;;;26.38;18.60;;;19.50;50.60;;;;;;5053537;28;20024;-83
2021/05/10 04:48:27;;;;;;;27.13;18.02;;;19.60;50.10;;;;;;5055683;28;20025;-83
2021/05/10 04:50:53;;;;;;;29.92;18.75;;;19.80;49.70;;;;;;5052650;28;20037;-82
2021/05/10 04:53:19;;;;;;;27.08;19.10;;;19.90;49.70;;;;;;5052174;28;20394;-82
2021/05/10 04:55:44;;;;;;;35.45;20.10;;;20.30;49.70;;;;;;5053666;28;20025;-83
2021/05/10 04:58:10;;;;;;;29.55;19.38;;;20.60;49.40;;;;;;5052521;28;20403;-84
2021/05/10 05:00:36;;;;;;;28.48;19.23;;;20.80;49.00;;;;;;5052031;28;20120;-84
2021/05/10 05:03:01;;;;;;;25.80;17.08;;;20.80;48.70;;;;;;5052523;28;20135;-81
2021/05/10 05:05:27;;;;;;;23.17;16.70;;;20.80;48.50;;;;;;5050128;28;20029;-82
2021/05/10 05:07:53;;;;;;;26.75;16.67;;;20.90;48.50;;;;;;5049982;28;20045;-82
2021/05/10 05:10:20;;;;;;;23.25;15.57;;;21.20;48.50;;;;;;5052589;28;20037;-80
2021/05/10 05:12:50;;;;;;;20.48;15.38;;;21.50;47.80;;;;;;5052060;28;20031;-86
2021/05/10 05:15:17;;;;;;;22.80;14.18;;;21.80;46.90;;;;;;5053318;28;20024;-85
2021/05/10 05:17:43;;;;;;;21.98;14.07;;;22.00;46.40;;;;;;5053280;28;20040;-83
2021/05/10 05:20:10;;;;;;;20.13;14.07;;;22.20;46.00;;;;;;5053724;28;20034;-84
2021/05/10 05:22:36;;;;;;;24.25;15.18;;;22.50;45.70;;;;;;5047875;28;20041;-84
2021/05/10 05:25:06;;;;;;;21.33;13.50;;;22.90;45.50;;;;;;5050545;28;20075;-80
2021/05/10 05:27:32;;;;;;;25.40;14.27;;;22.90;45.70;;;;;;5051666;28;20036;-83
2021/05/10 05:29:58;;;;;;;34.47;14.00;;;23.00;46.00;;;;;;5050925;28;20037;-84
2021/05/10 05:32:23;;;;;;;18.05;10.80;;;23.20;45.10;;;;;;5053439;28;20364;-86
2021/05/10 05:34:50;;;;;;;13.68;9.80;;;23.50;43.80;;;;;;5051410;28;20551;-83
2021/05/10 05:37:16;;;;;;;14.18;9.48;;;23.90;42.10;;;;;;5051678;28;20029;-84
2021/05/10 05:39:42;;;;;;;14.15;8.60;;;24.00;40.90;;;;;;5051853;28;20037;-83
2021/05/10 05:42:08;;;;;;;11.95;7.88;;;24.20;40.20;;;;;;5050641;28;20029;-83
2021/05/10 05:44:35;;;;;;;13.60;8.30;;;24.60;39.40;;;;;;5051307;28;20021;-82
2021/05/10 05:47:03;;;;;;;12.57;7.45;;;24.80;38.70;;;;;;5051669;28;20119;-83
2021/05/10 05:49:30;;;;;;;11.88;7.28;;;25.00;37.80;;;;;;5050433;28;20037;-83
2021/05/10 05:51:57;;;;;;;9.18;5.97;;;25.20;36.90;;;;;;5045695;28;20083;-83
2021/05/10 05:54:23;;;;;;;14.70;4.65;;;25.50;35.70;;;;;;5046012;28;20029;-80
2021/05/10 05:56:50;;;;;;;9.40;4.15;;;25.50;34.40;;;;;;5051003;28;20425;-81
2021/05/10 05:59:15;;;;;;;10.15;7.93;;;25.50;33.90;;;;;;5044512;28;20507;-82
2021/05/10 06:01:41;;;;;;;7.40;5.90;;;25.70;33.00;;;;;;5040568;28;20029;-81
2021/05/10 06:04:07;;;;;;;7.40;5.45;;;25.70;32.30;;;;;;5046601;28;20037;-81
2021/05/10 06:06:32;;;;;;;7.07;4.10;;;25.70;31.50;;;;;;5050305;28;20076;-81
2021/05/10 06:08:58;;;;;;;4.85;1.98;;;25.80;30.80;;;;;;5055373;28;20560;-81
2021/05/10 06:11:24;;;;;;;4.85;2.45;;;26.10;30.00;;;;;;5047835;28;20029;-82
2021/05/10 06:13:50;;;;;;;6.97;3.97;;;26.50;29.70;;;;;;5055815;28;20490;-83
2021/05/10 06:16:16;;;;;;;8.65;4.50;;;26.80;30.10;;;;;;5056221;28;20029;-83
2021/05/10 06:18:43;;;;;;;8.25;4.70;;;26.80;30.10;;;;;;5056385;28;20498;-82
2021/05/10 06:21:08;;;;;;;7.90;4.80;;;26.80;30.10;;;;;;5050239;28;20033;-82
2021/05/10 06:23:37;;;;;;;15.55;5.60;;;26.80;30.30;;;;;;5056396;28;20021;-82
2021/05/10 06:26:06;;;;;;;15.57;11.70;;;26.90;30.10;;;;;;5057362;28;20030;-82
2021/05/10 06:28:32;;;;;;;15.23;9.25;;;26.80;30.00;;;;;;5065868;28;20009;-84
2021/05/10 06:30:57;;;;;;;20.33;10.88;;;26.70;31.10;;;;;;5060247;28;20041;-82
2021/05/10 06:33:23;;;;;;;22.73;16.67;;;26.60;31.40;;;;;;5044065;28;20029;-82
2021/05/10 06:35:49;;;;;;;20.45;14.18;;;26.70;31.70;;;;;;5065169;28;20025;-83
2021/05/10 06:38:15;;;;;;;14.27;10.88;;;26.80;32.10;;;;;;5055632;28;20083;-83
2021/05/10 06:40:41;;;;;;;12.07;10.88;;;26.80;31.30;;;;;;5054628;28;20025;-82
2021/05/10 06:43:07;;;;;;;9.70;7.07;;;26.80;31.70;;;;;;5048048;28;20025;-82
2021/05/10 06:45:33;;;;;;;9.88;6.13;;;26.80;30.90;;;;;;5053883;28;20029;-83
2021/05/10 06:47:59;;;;;;;10.98;5.10;;;26.70;30.80;;;;;;5045687;28;20052;-83
2021/05/10 06:50:25;;;;;;;6.30;2.97;;;26.70;30.80;;;;;;5047624;28;20032;-84
2021/05/10 06:52:50;;;;;;;8.82;3.30;;;26.70;30.30;;;;;;5052871;28;20025;-82
2021/05/10 06:55:16;;;;;;;11.30;4.57;;;26.80;30.80;;;;;;5054683;28;20186;-82
2021/05/10 06:57:42;;;;;;;8.75;3.30;;;26.80;30.50;;;;;;5051725;28;20036;-82
2021/05/10 07:00:08;;;;;;;7.70;3.65;;;26.70;29.80;;;;;;5054240;28;20032;-83
2021/05/10 07:02:34;;;;;;;8.50;4.07;;;26.90;30.20;;;;;;5057116;28;20394;-83
2021/05/10 07:05:00;;;;;;;7.75;4.45;;;27.00;31.00;;;;;;5054603;28;20036;-82
2021/05/10 07:07:26;;;;;;;7.65;3.65;;;27.10;30.70;;;;;;5056991;28;20487;-84
2021/05/10 07:09:52;;;;;;;7.55;3.20;;;27.20;30.60;;;;;;5053878;28;20045;-81
2021/05/10 07:12:18;;;;;;;12.88;3.95;;;27.20;30.10;;;;;;5054415;28;20039;-81
2021/05/10 07:14:44;;;;;;;8.70;3.58;;;27.40;30.00;;;;;;5055294;28;20033;-82
2021/05/10 07:17:09;;;;;;;8.93;3.53;;;27.50;29.70;;;;;;5054126;28;20025;-82
2021/05/10 07:19:35;;;;;;;9.25;3.78;;;27.50;29.70;;;;;;5042136;28;20040;-81
2021/05/10 07:22:02;;;;;;;7.60;3.22;;;27.70;29.80;;;;;;5044894;28;20040;-82
2021/05/10 07:24:28;;;;;;;6.32;3.58;;;27.70;29.30;;;;;;5053495;28;20048;-83
2021/05/10 07:26:54;;;;;;;9.23;4.40;;;27.70;28.90;;;;;;5053866;28;20059;-82
2021/05/10 07:29:19;;;;;;;11.45;3.50;;;27.60;29.00;;;;;;5055455;28;20087;-81
2021/05/10 07:31:45;;;;;;;10.10;3.03;;;27.50;29.00;;;;;;5053893;28;20021;-82
2021/05/10 07:34:11;;;;;;;5.10;2.30;;;27.30;29.50;;;;;;5054351;28;20032;-81
2021/05/10 07:36:37;;;;;;;9.50;2.80;;;27.20;29.20;;;;;;5052927;28;20029;-81
2021/05/10 07:39:04;;;;;;;9.10;3.75;;;27.20;29.50;;;;;;5053222;28;20028;-81
2021/05/10 07:41:30;;;;;;;8.85;3.05;;;27.20;29.90;;;;;;5050648;28;20029;-78
2021/05/10 07:43:55;;;;;;;7.38;2.50;;;27.20;29.80;;;;;;5053217;28;20031;-80
2021/05/10 07:46:21;;;;;;;3.70;2.40;;;27.30;29.10;;;;;;5053450;28;20029;-79
2021/05/10 07:48:47;;;;;;;5.05;2.75;;;27.40;28.70;;;;;;5054659;28;20033;-80
2021/05/10 07:51:14;;;;;;;5.13;2.47;;;27.70;28.10;;;;;;5050869;28;20091;-80
2021/05/10 07:53:40;;;;;;;6.28;2.30;;;27.90;28.10;;;;;;5050049;28;20079;-80
2021/05/10 07:56:06;;;;;;;4.65;2.28;;;28.00;28.00;;;;;;5053594;28;20498;-79
2021/05/10 07:58:32;;;;;;;4.93;2.30;;;28.10;28.20;;;;;;5063321;28;20391;-79
2021/05/10 08:01:01;;;;;;;3.10;2.00;;;28.20;28.50;;;;;;5058435;28;20035;-81
2021/05/10 08:03:28;;;;;;;8.32;2.45;;;28.10;27.70;;;;;;5061322;28;20166;-79
2021/05/10 08:05:55;;;;;;;4.38;1.90;;;28.10;27.70;;;;;;5053974;28;20479;-80
2021/05/10 08:08:25;;;;;;;5.90;3.00;;;28.10;27.50;;;;;;5051147;28;20052;-80
2021/05/10 08:10:51;;;;;;;3.63;1.80;;;28.20;27.30;;;;;;5056448;28;20036;-79
2021/05/10 08:13:17;;;;;;;3.95;2.20;;;28.10;26.90;;;;;;5068991;28;20035;-79
2021/05/10 08:15:44;;;;;;;3.35;2.22;;;28.10;27.00;;;;;;5072465;28;20021;-79
2021/05/10 08:18:11;;;;;;;4.63;2.10;;;28.20;27.20;;;;;;5073100;28;20017;-75
2021/05/10 08:20:41;;;;;;;3.30;1.88;;;28.20;26.80;;;;;;5064732;28;20093;-78
2021/05/10 08:23:07;;;;;;;3.40;2.13;;;28.30;27.30;;;;;;5063055;28;20029;-78
2021/05/10 08:25:33;;;;;;;3.40;1.80;;;28.20;27.60;;;;;;5051208;28;20025;-78
2021/05/10 08:27:59;;;;;;;8.32;2.33;;;28.20;27.30;;;;;;5053493;28;20021;-77
2021/05/10 08:30:24;;;;;;;4.68;2.53;;;28.10;27.80;;;;;;5054239;28;20087;-80
2021/05/10 08:32:51;;;;;;;6.57;2.40;;;28.10;27.10;;;;;;5059396;28;20066;-76
2021/05/10 08:35:17;;;;;;;5.35;2.58;;;28.20;26.80;;;;;;5054953;28;20029;-79
2021/05/10 08:37:43;;;;;;;3.90;2.42;;;28.20;26.70;;;;;;5050737;28;20026;-82
2021/05/10 08:40:09;;;;;;;4.65;2.78;;;28.30;27.40;;;;;;5048147;28;20072;-70
2021/05/10 08:42:35;;;;;;;6.50;3.00;;;28.40;26.70;;;;;;5050406;28;20029;-70
2021/05/10 08:45:01;;;;;;;6.10;2.30;;;28.30;26.60;;;;;;5053292;28;20028;-71
2021/05/10 08:47:33;;;;;;;5.07;2.90;;;28.30;27.10;;;;;;5052049;28;20029;-74
2021/05/10 08:50:00;;;;;;;4.68;1.90;;;28.20;27.20;;;;;;5042495;28;20066;-72
2021/05/10 08:52:26;;;;;;;5.43;2.22;;;28.00;27.50;;;;;;5049561;28;20029;-74
2021/05/10 08:54:52;;;;;;;6.65;2.30;;;28.00;27.50;;;;;;5051408;28;20021;-71
2021/05/10 08:57:18;;;;;;;4.05;2.15;;;28.10;27.90;;;;;;5053568;28;20036;-74
2021/05/10 08:59:44;;;;;;;3.42;2.35;;;28.10;27.60;;;;;;5046236;28;20025;-71
2021/05/10 09:02:10;;;;;;;5.75;2.30;;;27.90;26.80;;;;;;5049856;28;20060;-73
2021/05/10 09:04:38;;;;;;;4.32;2.35;;;28.00;26.60;;;;;;5049137;28;20025;-71
2021/05/10 09:07:17;;;;;;;3.08;2.15;;;27.90;26.70;;;;;;5040942;28;20049;-71
2021/05/10 09:09:49;;;;;;;3.35;2.38;;;28.00;26.90;;;;;;5041799;28;20033;-72
2021/05/10 09:12:17;;;;;;;3.25;2.47;;;28.00;26.50;;;;;;5044953;28;20060;-73
2021/05/10 09:14:42;;;;;;;4.35;2.10;;;27.80;26.50;;;;;;5052015;28;20033;-72
2021/05/10 09:17:09;;;;;;;5.35;2.40;;;27.80;27.00;;;;;;5051385;28;20029;-72
2021/05/10 09:19:54;;;;;;;4.05;2.20;;;27.80;26.70;;;;;;5041857;28;20079;-71
2021/05/10 09:22:20;;;;;;;;;;;27.80;26.70;;;;;;5036655;28;20044;-68
2021/05/10 09:24:51;;;;;;;4.57;2.35;;;27.90;27.20;;;;;;5045534;28;19909;-67
2021/05/10 09:27:21;;;;;;;5.00;3.25;;;28.00;27.60;;;;;;5035973;28;20038;-72
2021/05/10 09:29:47;;;;;;;3.65;1.92;;;28.10;27.10;;;;;;5045311;28;20043;-82
2021/05/10 09:32:30;;;;;;;5.03;2.00;;;28.00;26.70;;;;;;5052130;28;20036;-80
2021/05/10 09:35:29;;;;;;;4.72;2.28;;;27.90;26.50;;;;;;5046894;28;20024;-81
2021/05/10 09:38:00;;;;;;;3.40;2.22;;;28.00;27.10;;;;;;5042997;28;20486;-82
2021/05/10 09:40:29;;;;;;;3.65;2.33;;;28.30;26.90;;;;;;5048405;28;20025;-83
2021/05/10 09:42:59;;;;;;;4.15;2.70;;;28.40;26.60;;;;;;5051730;28;20498;-82
2021/05/10 09:45:32;;;;;;;3.85;2.03;;;28.50;26.30;;;;;;5051145;28;20021;-84
2021/05/10 09:48:06;;;;;;;2.58;1.77;;;28.40;26.20;;;;;;5037825;28;20029;-81
2021/05/10 09:50:38;;;;;;;3.17;1.90;;;28.30;26.30;;;;;;5051099;28;20029;-81
2021/05/10 09:53:04;;;;;;;4.55;1.65;;;28.10;26.20;;;;;;5039023;28;20395;-81
2021/05/10 09:55:47;;;;;;;4.32;1.77;;;27.80;26.50;;;;;;5052119;28;20036;-82
2021/05/10 09:58:13;;;;;;;3.35;1.88;;;27.70;27.10;;;;;;5053200;28;20017;-81
2021/05/10 10:00:40;;;;;;;3.35;1.92;;;27.60;26.70;;;;;;5051787;28;20043;-81
2021/05/10 10:03:22;;;;;;;3.50;2.30;;;27.50;26.80;;;;;;5053484;28;20424;-81
2021/05/10 10:05:49;;;;;;;3.92;1.80;;;27.50;26.50;;;;;;5053632;28;20100;-82
2021/05/10 10:08:16;;;;;;;7.70;1.90;;;27.50;26.40;;;;;;5053599;28;20065;-82
2021/05/10 10:10:41;;;;;;;6.82;2.00;;;27.60;26.40;;;;;;5055425;28;20025;-81
2021/05/10 10:13:07;;;;;;;2.97;1.58;;;27.80;27.30;;;;;;5062293;28;20087;-82
2021/05/10 10:15:33;;;;;;;2.60;1.50;;;28.00;27.50;;;;;;5076262;28;20044;-83
2021/05/10 10:18:01;;;;;;;3.08;1.60;;;28.10;27.10;;;;;;5076704;28;20013;-83
2021/05/10 10:20:29;;;;;;;3.22;1.60;;;28.10;27.10;;;;;;5076834;28;20029;-87
2021/05/10 10:22:55;;;;;;;2.30;1.60;;;28.20;27.10;;;;;;5073793;28;20029;-87
2021/05/10 10:25:21;;;;;;;2.58;1.60;;;28.10;26.80;;;;;;5062881;28;20025;-82
2021/05/10 10:27:49;;;;;;;2.33;1.63;;;28.10;26.70;;;;;;5060765;28;20029;-80
2021/05/10 10:30:16;;;;;;;2.97;1.50;;;28.00;27.40;;;;;;5063349;28;20108;-82
2021/05/10 10:32:43;;;;;;;3.50;1.67;;;28.00;26.90;;;;;;5058711;28;20036;-81
2021/05/10 10:35:11;;;;;;;3.50;1.60;;;28.00;26.50;;;;;;5058136;28;20040;-82
2021/05/10 10:37:37;;;;;;;2.42;1.60;;;27.80;26.90;;;;;;5051263;28;20033;-81
2021/05/10 10:40:15;;;;;;;2.90;1.80;;;27.80;27.00;;;;;;5050782;28;20033;-82
2021/05/10 10:42:41;;;;;;;8.23;1.70;;;27.70;27.20;;;;;;5050236;28;20049;-81
2021/05/10 10:45:11;;;;;;;3.47;1.70;;;27.70;27.20;;;;;;5052241;28;20056;-81
2021/05/10 10:47:47;;;;;;;4.13;1.55;;;27.90;27.20;;;;;;5050927;28;20021;-81
2021/05/10 10:50:17;;;;;;;1.90;1.42;;;27.90;26.60;;;;;;5052184;28;20021;-81
2021/05/10 10:52:56;;;;;;;2.53;1.55;;;27.60;26.30;;;;;;5053285;28;20025;-81
2021/05/10 10:55:41;;;;;;;2.78;1.58;;;27.50;26.00;;;;;;5055091;28;20032;-81
2021/05/10 10:58:22;;;;;;;5.18;1.70;;;27.30;26.70;;;;;;5042279;28;20029;-81
2021/05/10 11:01:07;;;;;;;3.58;1.67;;;27.10;27.10;;;;;;5054947;28;20131;-81
2021/05/10 11:03:35;;;;;;;5.13;1.90;;;27.40;27.20;;;;;;5054511;28;20025;-81
2021/05/10 11:06:01;;;;;;;2.53;1.60;;;27.50;26.80;;;;;;5054196;28;20036;-81
2021/05/10 11:08:39;;;;;;;3.65;1.73;;;27.50;27.40;;;;;;5054103;28;20060;-82
2021/05/10 11:11:09;;;;;;;2.03;1.50;;;27.40;26.50;;;;;;5053767;28;20029;-82
2021/05/10 11:13:39;;;;;;;2.70;1.50;;;26.90;26.40;;;;;;5054467;28;20047;-81
2021/05/10 11:16:09;;;;;;;5.18;1.67;;;26.60;26.80;;;;;;5054123;28;20048;-82
2021/05/10 11:18:50;;;;;;;4.78;1.80;;;26.20;27.20;;;;;;5054043;28;20025;-80
2021/05/10 11:21:22;;;;;;;2.13;1.40;;;25.90;27.20;;;;;;5054983;28;20048;-80
2021/05/10 11:23:56;;;;;;;2.45;1.63;;;25.10;27.20;;;;;;5053801;28;20021;-80
2021/05/10 11:26:45;;;;;;;2.92;1.90;;;24.40;27.50;;;;;;5053356;28;20479;-82
2021/05/10 11:29:33;;;;;;;4.85;1.50;;;23.80;27.50;;;;;;5055558;28;20070;-81
2021/05/10 11:32:18;;;;;;;6.25;3.70;;;23.10;27.90;;;;;;5054636;28;20048;-81
2021/05/10 11:34:44;;;;;;;;;;;22.70;28.00;;;;;;5054933;28;20099;-81
2021/05/10 11:37:10;;;;;;;5.18;2.30;;;22.30;28.00;;;;;;5053497;28;19955;-81
2021/05/10 11:39:38;;;;;;;2.78;1.70;;;22.10;28.90;;;;;;5053945;28;20029;-81
2021/05/10 11:42:11;;;;;;;4.65;1.70;;;22.00;29.80;;;;;;5053315;28;20029;-83
2021/05/10 11:44:38;;;;;;;3.53;1.83;;;21.70;29.30;;;;;;5053841;28;20021;-81
2021/05/10 11:47:06;;;;;;;2.58;1.70;;;21.50;29.10;;;;;;5055254;28;20376;-80
2021/05/10 11:49:33;;;;;;;2.60;1.60;;;21.40;29.20;;;;;;5054090;28;20021;-81
2021/05/10 11:52:05;;;;;;;2.55;1.67;;;21.10;29.20;;;;;;5053700;28;20025;-80
2021/05/10 11:54:31;;;;;;;4.55;1.90;;;20.80;29.40;;;;;;5053051;28;20047;-80
2021/05/10 11:57:00;;;;;;;3.67;1.67;;;20.70;29.80;;;;;;5053569;28;20029;-80
2021/05/10 12:02:22;;;;;;;3.03;1.92;;;20.50;30.00;;;;;;5055197;28;20025;-79
2021/05/10 12:04:53;;;;;;;4.80;1.73;;;20.40;30.40;;;;;;5054189;28;20517;-80
2021/05/10 12:07:22;;;;;;;4.03;2.08;;;20.30;30.70;;;;;;5053964;28;20056;-79
2021/05/10 12:09:49;;;;;;;3.03;1.80;;;20.20;30.20;;;;;;5054866;28;20029;-79
2021/05/10 12:12:18;;;;;;;2.65;1.80;;;20.10;29.90;;;;;;5053931;28;20025;-80
2021/05/10 12:14:49;;;;;;;3.17;1.77;;;20.10;29.70;;;;;;5053975;28;20485;-79
2021/05/10 12:17:24;;;;;;;2.63;1.70;;;20.00;29.90;;;;;;5054959;28;20043;-79
2021/05/10 12:20:16;;;;;;;3.63;1.70;;;20.00;30.10;;;;;;5058053;28;20183;-79
2021/05/10 12:22:47;;;;;;;4.18;1.80;;;20.00;30.30;;;;;;5060258;28;20500;-80
2021/05/10 12:25:13;;;;;;;2.55;1.70;;;19.90;30.30;;;;;;5057233;28;20028;-79
2021/05/10 12:27:45;;;;;;;3.22;2.10;;;19.90;30.40;;;;;;5058879;28;20032;-79
2021/05/10 12:30:14;;;;;;;4.47;2.60;;;20.00;30.70;;;;;;5058063;28;20422;-79
2021/05/10 12:32:41;;;;;;;3.70;1.95;;;19.90;30.10;;;;;;5057417;28;20047;-78
2021/05/10 12:35:10;;;;;;;4.15;2.00;;;19.90;30.30;;;;;;5066223;28;20061;-79
2021/05/10 12:37:44;;;;;;;4.47;1.60;;;19.80;30.10;;;;;;5068205;28;20025;-79
2021/05/10 12:40:11;;;;;;;4.32;1.70;;;19.90;30.80;;;;;;5057070;28;20036;-79
2021/05/10 12:42:38;;;;;;;4.30;1.77;;;19.90;30.60;;;;;;5052477;28;20036;-79
2021/05/10 12:45:09;;;;;;;3.63;1.60;;;19.90;30.40;;;;;;5058824;28;20025;-79
2021/05/10 12:47:43;;;;;;;3.25;1.70;;;19.90;30.30;;;;;;5070234;28;20110;-79
2021/05/10 12:50:12;;;;;;;5.05;2.28;;;19.90;30.50;;;;;;5059225;28;20039;-79
2021/05/10 12:52:51;;;;;;;3.08;1.92;;;20.00;30.80;;;;;;5052148;28;20016;-79
2021/05/10 12:55:23;;;;;;;3.03;1.90;;;20.10;30.50;;;;;;5053499;28;20083;-79
2021/05/10 12:57:50;;;;;;;5.05;2.00;;;20.00;30.20;;;;;;5052070;28;20082;-79